FYOA

Ondangwa Airport

Ondangwa, Namibia
METAR FYOA 191500Z 18003KT CAVOK 37/05 Q1012
Observed Flight Rules
Sep-19 @ 15:00 UTC (8 hours ago) Visual Flight Rules
Wind Visibility Clouds
180° at 3 knots 10,000+ meters
  • Clear skies
Temperatures Readings
Current 37°C / 99°F
Dewpoint 5°C / 41°F
Humidity 14%
Altimeter 29.88" Hg
Pressure 1012 hPa
Elevation 1095
METAR FYOA 191500Z 18003KT CAVOK 37/05 Q1012
Observed Flight Rules
Sep-19 @ 15:00 UTC
(8 hours ago)
VFR
Wind Visibility
180° at 3 knots 10,000+ meters
Clouds
  • Clear skies
Temperature Dewpoint
37°C / 99°F 5°C / 41°F
Humidity Altimeter Pressure
14% 29.88" Hg 1012 hPa